createdAt,value
2019-03-09T00:01:23.920Z,100219.87
2019-03-09T00:03:53.277Z,100222.34
2019-03-09T00:06:22.731Z,100227.73
2019-03-09T00:08:52.113Z,100227.67
2019-03-09T00:11:21.552Z,100224.42
2019-03-09T00:13:50.955Z,100221.12
2019-03-09T00:16:21.716Z,100220.02
2019-03-09T00:18:51.424Z,100220.08
2019-03-09T00:21:20.781Z,100214.48
2019-03-09T00:24:21.166Z,100216.91
2019-03-09T00:26:58.021Z,100203.02
2019-03-09T00:29:46.472Z,100184.62
2019-03-09T00:32:18.028Z,100188.12
2019-03-09T00:34:47.626Z,100176.28
2019-03-09T00:37:17.339Z,100186.78
2019-03-09T00:39:47.071Z,100185.69
2019-03-09T00:42:16.721Z,100180.02
2019-03-09T00:44:46.311Z,100183.09
2019-03-09T00:47:16.002Z,100183.22
2019-03-09T00:49:45.646Z,100177.74
2019-03-09T00:52:15.421Z,100187.00
2019-03-09T00:54:45.078Z,100176.73
2019-03-09T00:57:14.750Z,100161.24
2019-03-09T00:59:44.392Z,100161.03
2019-03-09T01:02:13.959Z,100146.19
2019-03-09T01:04:43.732Z,100147.88
2019-03-09T01:07:13.378Z,100145.99
2019-03-09T01:09:43.037Z,100138.41
2019-03-09T01:12:12.808Z,100129.63
2019-03-09T01:14:42.541Z,100134.39
2019-03-09T01:17:12.241Z,100129.25
2019-03-09T01:19:41.853Z,100117.72
2019-03-09T01:22:11.541Z,100104.61
2019-03-09T01:24:41.179Z,100108.89
2019-03-09T01:27:10.740Z,100109.92
2019-03-09T01:29:40.527Z,100097.55
2019-03-09T01:32:10.183Z,100082.02
2019-03-09T01:34:39.860Z,100084.05
2019-03-09T01:37:09.501Z,100080.19
2019-03-09T01:39:39.138Z,100075.30
2019-03-09T01:42:08.726Z,100071.98
2019-03-09T01:44:38.484Z,100069.36
2019-03-09T01:47:08.279Z,100064.88
2019-03-09T01:49:37.987Z,100051.15
2019-03-09T01:52:07.663Z,100044.98
2019-03-09T01:54:37.312Z,100038.47
2019-03-09T01:57:06.947Z,100021.77
2019-03-09T01:59:36.845Z,100010.92
2019-03-09T02:02:06.501Z,100004.62
2019-03-09T02:04:36.238Z,100006.84
2019-03-09T02:07:05.901Z,100006.33
2019-03-09T02:09:35.556Z,100003.72
2019-03-09T02:12:05.245Z,99989.29
2019-03-09T02:14:34.935Z,99983.55
2019-03-09T02:17:04.580Z,99976.95
2019-03-09T02:19:34.190Z,99971.77
2019-03-09T02:22:03.921Z,99968.89
2019-03-09T02:24:33.581Z,99958.58
2019-03-09T02:27:03.339Z,99953.59
2019-03-09T02:29:32.995Z,99948.63
2019-03-09T02:32:02.655Z,99943.07
2019-03-09T02:34:32.292Z,99947.55
2019-03-09T02:37:01.994Z,99948.32
2019-03-09T02:39:52.190Z,99940.90
2019-03-09T02:42:21.878Z,99938.59
2019-03-09T02:44:51.514Z,99926.73
2019-03-09T02:47:21.293Z,99937.61
2019-03-09T02:49:50.980Z,99934.59
2019-03-09T02:52:20.577Z,99936.67
2019-03-09T02:54:50.192Z,99924.47
2019-03-09T02:57:19.838Z,99921.63
2019-03-09T02:59:49.505Z,99921.19
2019-03-09T03:02:37.702Z,99921.05
2019-03-09T03:05:07.652Z,99922.16
2019-03-09T03:07:37.333Z,99918.80
2019-03-09T03:10:07.806Z,99925.76
2019-03-09T03:12:37.427Z,99928.14
2019-03-09T03:15:07.112Z,99922.23
2019-03-09T03:17:36.762Z,99926.98
2019-03-09T03:20:06.932Z,99915.13
2019-03-09T03:22:36.621Z,99932.78
2019-03-09T03:25:06.360Z,99929.42
2019-03-09T03:27:38.007Z,99915.66
2019-03-09T03:30:08.632Z,99900.16
2019-03-09T03:32:38.638Z,99917.16
2019-03-09T03:35:09.166Z,99909.64
2019-03-09T03:37:39.282Z,99911.94
2019-03-09T03:40:08.932Z,99905.28
2019-03-09T03:42:38.600Z,99927.06
2019-03-09T03:45:08.308Z,99923.39
2019-03-09T03:47:38.010Z,99922.69
2019-03-09T03:50:07.750Z,99942.59
2019-03-09T03:52:37.531Z,99942.72
2019-03-09T03:55:07.214Z,99931.80
2019-03-09T03:57:36.975Z,99945.20
2019-03-09T04:00:10.610Z,99946.34
2019-03-09T04:02:40.593Z,99941.75
2019-03-09T04:05:10.910Z,99941.53
2019-03-09T04:07:41.669Z,99936.58
2019-03-09T04:10:11.672Z,99936.94
2019-03-09T04:12:41.357Z,99934.67
2019-03-09T04:15:11.395Z,99932.37
2019-03-09T04:17:41.111Z,99926.71
2019-03-09T04:20:10.944Z,99934.09
2019-03-09T04:22:40.563Z,99929.95
2019-03-09T04:25:10.154Z,99949.61
2019-03-09T04:27:39.816Z,99941.04
2019-03-09T04:30:09.478Z,99946.96
2019-03-09T04:32:39.222Z,99948.68
2019-03-09T04:35:08.788Z,99967.96
2019-03-09T04:37:38.424Z,99958.19
2019-03-09T04:40:08.087Z,99960.75
2019-03-09T04:42:37.751Z,99949.70
2019-03-09T04:45:07.623Z,99943.95
2019-03-09T04:47:38.492Z,99946.29
2019-03-09T04:50:08.078Z,99946.44
2019-03-09T04:52:37.647Z,99947.55
2019-03-09T04:55:07.513Z,99944.45
2019-03-09T04:57:37.282Z,99921.06
2019-03-09T05:00:06.931Z,99942.67
2019-03-09T05:02:36.668Z,99932.22
2019-03-09T05:05:07.262Z,99932.67
2019-03-09T05:07:51.868Z,99930.47
2019-03-09T05:10:31.543Z,99912.53
2019-03-09T05:13:04.726Z,99918.45
2019-03-09T05:15:34.462Z,99912.78
2019-03-09T05:18:04.135Z,99922.30
2019-03-09T05:20:33.804Z,99918.23
2019-03-09T05:23:03.569Z,99919.59
2019-03-09T05:25:33.216Z,99919.72
2019-03-09T05:28:02.809Z,99922.38
2019-03-09T05:30:39.343Z,99918.73
2019-03-09T05:33:09.004Z,99926.89
2019-03-09T05:35:38.658Z,99945.23
2019-03-09T05:38:08.314Z,99958.97
2019-03-09T05:40:37.964Z,99961.76
2019-03-09T05:43:07.617Z,99965.49
2019-03-09T05:45:37.260Z,99977.70
2019-03-09T05:48:06.931Z,99980.09
2019-03-09T05:50:36.615Z,99982.81
2019-03-09T05:53:11.574Z,99973.66
2019-03-09T05:55:41.271Z,99984.86
2019-03-09T05:58:10.899Z,99992.20
2019-03-09T06:00:41.468Z,99989.72
2019-03-09T06:03:11.047Z,99972.39
2019-03-09T06:05:48.707Z,99979.22
2019-03-09T06:08:18.352Z,99993.95
2019-03-09T06:10:48.044Z,100011.03
2019-03-09T06:13:17.666Z,100032.89
2019-03-09T06:15:47.320Z,100027.09
2019-03-09T06:18:16.983Z,100032.55
2019-03-09T06:20:46.587Z,100024.77
2019-03-09T06:23:16.288Z,100022.64
2019-03-09T06:25:46.059Z,100027.98
2019-03-09T06:28:15.476Z,100010.04
2019-03-09T06:30:44.919Z,100034.17
2019-03-09T06:33:36.880Z,100056.30
2019-03-09T06:36:36.167Z,100071.27
2019-03-09T06:39:49.698Z,100074.23
2019-03-09T06:42:31.754Z,100078.16
2019-03-09T06:45:01.141Z,100087.98
2019-03-09T06:47:30.574Z,100098.74
2019-03-09T06:49:59.984Z,100105.66
2019-03-09T06:52:29.426Z,100109.46
2019-03-09T06:54:58.803Z,100111.83
2019-03-09T06:57:28.253Z,100108.41
2019-03-09T06:59:57.648Z,100108.41
2019-03-09T07:02:27.108Z,100111.48
2019-03-09T07:04:56.481Z,100104.97
2019-03-09T07:07:25.907Z,100103.09
2019-03-09T07:09:55.307Z,100123.04
2019-03-09T07:12:24.704Z,100111.55
2019-03-09T07:15:26.331Z,100099.88
2019-03-09T07:17:59.259Z,100114.75
2019-03-09T07:20:28.634Z,100104.27
2019-03-09T07:22:58.170Z,100099.14
2019-03-09T07:25:27.552Z,100107.92
2019-03-09T07:28:01.637Z,100112.78
2019-03-09T07:30:31.016Z,100123.45
2019-03-09T07:33:00.417Z,100116.02
2019-03-09T07:35:29.852Z,100122.59
2019-03-09T07:37:59.334Z,100133.27
2019-03-09T07:40:28.718Z,100131.41
2019-03-09T07:42:58.177Z,100128.17
2019-03-09T07:45:27.607Z,100130.83
2019-03-09T07:47:57.314Z,100133.73
2019-03-09T07:50:26.705Z,100126.16
2019-03-09T07:52:56.196Z,100124.37
2019-03-09T07:55:25.615Z,100121.27
2019-03-09T07:58:03.038Z,100139.03
2019-03-09T08:00:32.513Z,100135.58
2019-03-09T08:03:02.005Z,100125.64
2019-03-09T08:05:32.705Z,100131.13
2019-03-09T08:08:02.071Z,100139.88
2019-03-09T08:10:31.623Z,100127.20
2019-03-09T08:13:01.049Z,100131.33
2019-03-09T08:15:30.479Z,100129.34
2019-03-09T08:17:59.885Z,100125.91
2019-03-09T08:20:29.332Z,100133.91
2019-03-09T08:22:58.947Z,100145.52
2019-03-09T08:25:28.365Z,100154.67
2019-03-09T08:27:57.773Z,100160.38
2019-03-09T08:30:27.206Z,100175.09
2019-03-09T08:32:56.663Z,100180.31
2019-03-09T08:35:26.087Z,100188.88
2019-03-09T08:37:55.612Z,100199.61
2019-03-09T08:40:25.076Z,100199.56
2019-03-09T08:42:54.498Z,100204.13
2019-03-09T08:45:23.958Z,100211.41
2019-03-09T08:47:53.399Z,100197.53
2019-03-09T08:50:23.046Z,100210.15
2019-03-09T08:52:52.514Z,100214.62
2019-03-09T08:55:21.975Z,100213.14
2019-03-09T08:57:51.427Z,100225.89
2019-03-09T09:00:26.229Z,100226.05
2019-03-09T09:02:55.677Z,100249.37
2019-03-09T09:05:25.092Z,100259.13
2019-03-09T09:07:55.646Z,100254.34
2019-03-09T09:10:25.081Z,100258.23
2019-03-09T09:12:54.503Z,100264.39
2019-03-09T09:15:23.867Z,100261.37
2019-03-09T09:17:53.327Z,100248.97
2019-03-09T09:20:22.989Z,100257.08
2019-03-09T09:22:52.452Z,100258.89
2019-03-09T09:25:21.868Z,100245.89
2019-03-09T09:27:52.204Z,100249.47
2019-03-09T09:30:23.980Z,100257.61
2019-03-09T09:32:53.390Z,100259.20
2019-03-09T09:35:22.842Z,100257.86
2019-03-09T09:37:52.592Z,100242.39
2019-03-09T09:40:22.635Z,100251.91
2019-03-09T09:42:52.018Z,100243.90
2019-03-09T09:45:21.441Z,100244.13
2019-03-09T09:47:50.814Z,100240.28
2019-03-09T09:50:20.275Z,100229.16
2019-03-09T09:52:49.675Z,100236.41
2019-03-09T09:55:19.102Z,100236.28
2019-03-09T09:57:48.490Z,100246.20
2019-03-09T10:00:22.583Z,100240.09
2019-03-09T10:02:51.988Z,100242.27
2019-03-09T10:05:21.393Z,100243.09
2019-03-09T10:07:50.794Z,100240.90
2019-03-09T10:10:20.249Z,100234.60
2019-03-09T10:12:50.263Z,100227.59
2019-03-09T10:15:24.629Z,100233.89
2019-03-09T10:17:54.024Z,100227.52
2019-03-09T10:20:23.506Z,100208.27
2019-03-09T10:23:03.011Z,100213.36
2019-03-09T10:25:24.018Z,100220.48
2019-03-09T10:27:53.448Z,100221.11
2019-03-09T10:30:22.951Z,100216.70
2019-03-09T10:32:52.365Z,100218.80
2019-03-09T10:35:21.789Z,100207.07
2019-03-09T10:37:51.187Z,100204.76
2019-03-09T10:40:20.635Z,100203.64
2019-03-09T10:42:50.040Z,100195.27
2019-03-09T10:45:19.524Z,100175.72
2019-03-09T10:47:48.961Z,100193.86
2019-03-09T10:50:18.408Z,100171.82
2019-03-09T10:52:47.804Z,100173.33
2019-03-09T10:55:18.953Z,100180.28
2019-03-09T10:57:48.360Z,100187.88
2019-03-09T11:00:23.353Z,100179.94
2019-03-09T11:02:52.794Z,100172.34
2019-03-09T11:05:22.214Z,100155.17
2019-03-09T11:07:51.596Z,100156.13
2019-03-09T11:10:21.047Z,100135.02
2019-03-09T11:12:50.418Z,100136.02
2019-03-09T11:15:19.905Z,100142.62
2019-03-09T11:17:49.309Z,100152.56
2019-03-09T11:20:18.773Z,100187.22
2019-03-09T11:22:48.188Z,100213.90
2019-03-09T11:25:17.624Z,100229.10
2019-03-09T11:27:47.013Z,100232.51
2019-03-09T11:30:18.747Z,100243.62
2019-03-09T11:32:48.185Z,100240.23
2019-03-09T11:35:17.599Z,100249.47
2019-03-09T11:37:47.036Z,100238.42
2019-03-09T11:40:16.460Z,100248.13
2019-03-09T11:42:46.785Z,100221.46
2019-03-09T11:45:16.367Z,100238.17
2019-03-09T11:47:45.831Z,100226.11
2019-03-09T11:50:15.579Z,100228.28
2019-03-09T11:52:45.004Z,100205.08
2019-03-09T11:55:14.517Z,100205.64
2019-03-09T11:57:43.948Z,100195.92
2019-03-09T12:00:16.105Z,100197.38
2019-03-09T12:02:45.536Z,100193.46
2019-03-09T12:05:14.923Z,100185.86
2019-03-09T12:07:44.335Z,100179.26
2019-03-09T12:10:13.766Z,100169.80
2019-03-09T12:12:43.196Z,100153.41
2019-03-09T12:15:12.592Z,100164.72
2019-03-09T12:17:42.029Z,100150.67
2019-03-09T12:20:11.689Z,100106.47
2019-03-09T12:22:41.079Z,100121.44
2019-03-09T12:25:10.771Z,100130.67
2019-03-09T12:27:40.225Z,100143.62
2019-03-09T12:30:11.281Z,100152.00
2019-03-09T12:32:40.935Z,100155.11
2019-03-09T12:35:10.706Z,100146.08
2019-03-09T12:37:40.357Z,100143.91
2019-03-09T12:40:12.376Z,100143.50
2019-03-09T12:42:42.032Z,100139.55
2019-03-09T12:45:11.869Z,100123.94
2019-03-09T12:47:41.570Z,100117.02
2019-03-09T12:50:13.487Z,100073.34
2019-03-09T12:52:43.155Z,100094.95
2019-03-09T12:55:12.805Z,100098.32
2019-03-09T12:57:42.446Z,100084.33
2019-03-09T13:00:14.154Z,100082.82
2019-03-09T13:02:43.806Z,100084.30
2019-03-09T13:05:13.582Z,100070.56
2019-03-09T13:07:43.427Z,100045.11
2019-03-09T13:10:13.958Z,100041.84
2019-03-09T13:12:43.663Z,100044.98
2019-03-09T13:15:13.345Z,100033.52
2019-03-09T13:17:43.946Z,100037.70
2019-03-09T13:20:13.670Z,100035.95
2019-03-09T13:22:43.453Z,100008.12
2019-03-09T13:25:13.199Z,100010.23
2019-03-09T13:27:42.861Z,100009.75
2019-03-09T13:30:14.776Z,100019.13
2019-03-09T13:32:44.439Z,100006.60
2019-03-09T13:35:13.985Z,99997.42
2019-03-09T13:37:43.643Z,99985.20
2019-03-09T13:40:13.414Z,99989.17
2019-03-09T13:42:43.077Z,99983.16
2019-03-09T13:45:13.256Z,99971.39
2019-03-09T13:47:42.840Z,99972.10
2019-03-09T13:50:12.487Z,99951.86
2019-03-09T13:52:42.271Z,99941.44
2019-03-09T13:55:12.040Z,99945.80
2019-03-09T13:57:41.704Z,99923.04
2019-03-09T14:00:12.868Z,99940.28
2019-03-09T14:02:42.534Z,99928.56
2019-03-09T14:05:12.410Z,99912.13
2019-03-09T14:07:42.076Z,99896.39
2019-03-09T14:10:12.144Z,99890.39
2019-03-09T14:12:41.935Z,99888.30
2019-03-09T14:15:13.187Z,99885.20
2019-03-09T14:17:42.844Z,99884.63
2019-03-09T14:20:12.404Z,99876.59
2019-03-09T14:22:42.094Z,99877.91
2019-03-09T14:25:11.846Z,99877.78
2019-03-09T14:27:41.501Z,99908.13
2019-03-09T14:30:12.724Z,99916.83
2019-03-09T14:32:42.441Z,99939.44
2019-03-09T14:35:12.104Z,99931.23
2019-03-09T14:37:41.856Z,99925.20
2019-03-09T14:40:11.827Z,99915.97
2019-03-09T14:42:41.558Z,99906.06
2019-03-09T14:45:14.198Z,99892.39
2019-03-09T14:47:43.777Z,99880.16
2019-03-09T14:50:13.632Z,99865.27
2019-03-09T14:52:43.334Z,99858.24
2019-03-09T14:55:12.921Z,99862.59
2019-03-09T14:57:42.522Z,99861.69
2019-03-09T15:00:17.367Z,99856.08
2019-03-09T15:02:46.964Z,99857.67
2019-03-09T15:05:16.702Z,99835.63
2019-03-09T15:07:46.389Z,99851.05
2019-03-09T15:10:16.027Z,99829.89
2019-03-09T15:12:45.700Z,99844.56
2019-03-09T15:15:15.551Z,99860.00
2019-03-09T15:17:45.186Z,99861.98
2019-03-09T15:20:14.875Z,99849.92
2019-03-09T15:22:44.505Z,99860.88
2019-03-09T15:25:14.489Z,99866.55
2019-03-09T15:27:44.175Z,99868.85
2019-03-09T15:30:14.733Z,99857.54
2019-03-09T15:32:44.377Z,99865.88
2019-03-09T15:35:14.048Z,99865.91
2019-03-09T15:37:43.714Z,99858.91
2019-03-09T15:40:13.312Z,99863.57
2019-03-09T15:42:42.956Z,99865.91
2019-03-09T15:45:12.739Z,99866.26
2019-03-09T15:47:42.613Z,99865.23
2019-03-09T15:50:12.655Z,99853.52
2019-03-09T15:52:42.335Z,99865.59
2019-03-09T15:55:11.986Z,99891.39
2019-03-09T15:57:41.765Z,99881.65
2019-03-09T16:00:16.713Z,99899.73
2019-03-09T16:02:46.400Z,99897.75
2019-03-09T16:05:16.169Z,99908.47
2019-03-09T16:07:45.810Z,99918.34
2019-03-09T16:10:15.673Z,99929.22
2019-03-09T16:12:45.358Z,99925.87
2019-03-09T16:15:15.150Z,99922.52
2019-03-09T16:17:44.860Z,99888.05
2019-03-09T16:20:15.784Z,99901.05
2019-03-09T16:22:45.408Z,99913.62
2019-03-09T16:25:15.075Z,99897.17
2019-03-09T16:27:44.818Z,99922.26
2019-03-09T16:30:16.730Z,99911.59
2019-03-09T16:32:46.362Z,99929.69
2019-03-09T16:35:15.920Z,99923.30
2019-03-09T16:37:45.610Z,99934.54
2019-03-09T16:40:15.577Z,99915.97
2019-03-09T16:42:45.257Z,99910.75
2019-03-09T16:45:14.912Z,99910.58
2019-03-09T16:47:44.533Z,99903.28
2019-03-09T16:50:14.133Z,99933.55
2019-03-09T16:52:43.748Z,99929.03
2019-03-09T16:55:13.331Z,99943.08
2019-03-09T16:57:42.989Z,99929.02
2019-03-09T17:00:15.397Z,99951.05
2019-03-09T17:02:45.095Z,99920.23
2019-03-09T17:05:14.843Z,99946.37
2019-03-09T17:07:44.502Z,99938.98
2019-03-09T17:10:14.355Z,99951.02
2019-03-09T17:12:44.049Z,99969.79
2019-03-09T17:15:14.093Z,99954.07
2019-03-09T17:17:43.803Z,99969.59
2019-03-09T17:20:13.555Z,99989.26
2019-03-09T17:22:43.236Z,99945.60
2019-03-09T17:25:12.893Z,99995.31
2019-03-09T17:27:42.532Z,99996.17
2019-03-09T17:30:14.427Z,99998.12
2019-03-09T17:32:44.222Z,100005.52
2019-03-09T17:35:14.027Z,100015.27
2019-03-09T17:37:43.738Z,100022.80
2019-03-09T17:40:13.556Z,100034.19
2019-03-09T17:42:43.211Z,100052.90
2019-03-09T17:45:20.138Z,100056.25
2019-03-09T17:47:50.015Z,100040.95
2019-03-09T17:50:19.681Z,100055.98
2019-03-09T17:52:49.316Z,100063.69
2019-03-09T17:55:18.990Z,100062.91
2019-03-09T17:57:48.741Z,100039.11
2019-03-09T18:00:20.438Z,100075.80
2019-03-09T18:02:50.083Z,100070.22
2019-03-09T18:05:20.150Z,100086.42
2019-03-09T18:07:49.950Z,100099.17
2019-03-09T18:10:34.753Z,100096.49
2019-03-09T18:13:04.416Z,100102.58
2019-03-09T18:15:34.049Z,100098.52
2019-03-09T18:18:03.712Z,100130.16
2019-03-09T18:20:33.291Z,100133.83
2019-03-09T18:23:02.942Z,100132.00
2019-03-09T18:25:32.572Z,100142.34
2019-03-09T18:28:02.247Z,100140.66
2019-03-09T18:30:31.647Z,100148.63
2019-03-09T18:33:01.077Z,100154.00
2019-03-09T18:35:30.502Z,100178.02
2019-03-09T18:37:59.976Z,100172.21
2019-03-09T18:40:29.365Z,100183.39
2019-03-09T18:42:58.817Z,100190.69
2019-03-09T18:45:28.232Z,100188.70
2019-03-09T18:47:57.663Z,100193.09
2019-03-09T18:50:27.136Z,100193.05
2019-03-09T18:52:56.600Z,100174.05
2019-03-09T18:55:25.975Z,100212.55
2019-03-09T18:57:55.386Z,100213.89
2019-03-09T19:00:24.792Z,100206.25
2019-03-09T19:02:54.233Z,100209.92
2019-03-09T19:05:23.596Z,100225.80
2019-03-09T19:07:53.062Z,100220.57
2019-03-09T19:10:22.496Z,100223.02
2019-03-09T19:12:51.936Z,100206.75
2019-03-09T19:15:21.332Z,100232.44
2019-03-09T19:17:50.815Z,100238.28
2019-03-09T19:20:20.202Z,100247.22
2019-03-09T19:22:49.632Z,100243.17
2019-03-09T19:25:19.030Z,100250.05
2019-03-09T19:27:48.403Z,100255.31
2019-03-09T19:30:17.834Z,100264.09
2019-03-09T19:32:47.205Z,100271.77
2019-03-09T19:35:16.658Z,100268.91
2019-03-09T19:37:46.156Z,100288.80
2019-03-09T19:40:15.699Z,100279.90
2019-03-09T19:42:45.116Z,100291.39
2019-03-09T19:45:14.921Z,100284.45
2019-03-09T19:47:44.309Z,100287.99
2019-03-09T19:50:15.708Z,100280.47
2019-03-09T19:52:45.099Z,100291.39
2019-03-09T19:55:14.567Z,100293.34
2019-03-09T19:57:44.022Z,100300.08
2019-03-09T20:00:14.341Z,100299.17
2019-03-09T20:02:43.711Z,100291.80
2019-03-09T20:05:13.154Z,100301.23
2019-03-09T20:07:42.517Z,100284.20
2019-03-09T20:10:12.600Z,100290.80
2019-03-09T20:12:42.022Z,100294.54
2019-03-09T20:15:12.635Z,100284.72
2019-03-09T20:17:42.021Z,100297.04
2019-03-09T20:20:11.972Z,100294.07
2019-03-09T20:22:41.347Z,100298.72
2019-03-09T20:25:10.992Z,100300.28
2019-03-09T20:27:40.376Z,100317.12
2019-03-09T20:30:10.269Z,100315.83
2019-03-09T20:32:39.652Z,100312.92
2019-03-09T20:35:09.064Z,100320.47
2019-03-09T20:37:38.493Z,100321.94
2019-03-09T20:40:08.766Z,100330.89
2019-03-09T20:42:38.188Z,100328.70
2019-03-09T20:45:10.123Z,100327.81
2019-03-09T20:47:39.553Z,100331.96
2019-03-09T20:50:10.684Z,100332.33
2019-03-09T20:52:40.146Z,100333.73
2019-03-09T20:55:09.682Z,100342.75
2019-03-09T20:57:39.126Z,100343.84
2019-03-09T21:00:11.362Z,100346.67
2019-03-09T21:02:40.773Z,100337.97
2019-03-09T21:05:10.197Z,100348.84
2019-03-09T21:07:39.621Z,100352.84
2019-03-09T21:10:10.003Z,100342.66
2019-03-09T21:12:52.259Z,100339.73
2019-03-09T21:15:21.645Z,100347.36
2019-03-09T21:17:51.094Z,100348.20
2019-03-09T21:20:20.481Z,100350.17
2019-03-09T21:22:49.931Z,100350.27
2019-03-09T21:25:19.282Z,100358.77
2019-03-09T21:27:48.747Z,100367.04
2019-03-09T21:30:18.135Z,100354.58
2019-03-09T21:32:47.554Z,100365.26
2019-03-09T21:35:16.963Z,100362.48
2019-03-09T21:37:46.398Z,100362.88
2019-03-09T21:40:15.773Z,100363.73
2019-03-09T21:42:45.202Z,100371.05
2019-03-09T21:45:14.595Z,100370.30
2019-03-09T21:47:44.052Z,100370.13
2019-03-09T21:50:13.461Z,100384.36
2019-03-09T21:52:42.910Z,100380.70
2019-03-09T21:55:12.587Z,100382.03
2019-03-09T21:57:41.963Z,100383.22
2019-03-09T22:00:12.655Z,100386.28
2019-03-09T22:02:42.037Z,100391.87
2019-03-09T22:05:12.383Z,100391.72
2019-03-09T22:07:41.758Z,100392.38
2019-03-09T22:10:11.315Z,100386.44
2019-03-09T22:12:40.693Z,100391.23
2019-03-09T22:15:10.426Z,100403.20
2019-03-09T22:17:39.838Z,100400.34
2019-03-09T22:20:09.369Z,100385.73
2019-03-09T22:22:38.752Z,100397.44
2019-03-09T22:25:09.148Z,100383.61
2019-03-09T22:27:38.523Z,100386.17
2019-03-09T22:30:09.467Z,100382.98
2019-03-09T22:32:38.841Z,100370.61
2019-03-09T22:35:10.223Z,100371.67
2019-03-09T22:37:39.593Z,100370.69
2019-03-09T22:40:09.744Z,100374.46
2019-03-09T22:42:39.142Z,100365.22
2019-03-09T22:45:09.481Z,100371.92
2019-03-09T22:47:38.867Z,100363.28
2019-03-09T22:50:10.139Z,100360.47
2019-03-09T22:52:39.512Z,100366.33
2019-03-09T22:55:09.636Z,100363.88
2019-03-09T22:57:39.065Z,100344.66
2019-03-09T23:00:10.902Z,100349.41
2019-03-09T23:02:40.283Z,100348.27
2019-03-09T23:05:10.162Z,100344.83
2019-03-09T23:07:39.574Z,100347.62
2019-03-09T23:10:11.032Z,100347.40
2019-03-09T23:12:40.473Z,100342.84
2019-03-09T23:15:11.367Z,100333.55
2019-03-09T23:17:40.804Z,100335.42
2019-03-09T23:20:11.320Z,100340.34
2019-03-09T23:22:40.770Z,100338.27
2019-03-09T23:25:10.196Z,100334.44
2019-03-09T23:27:39.640Z,100341.17
2019-03-09T23:30:12.101Z,100346.03
2019-03-09T23:32:41.542Z,100340.23
2019-03-09T23:35:10.937Z,100333.39
2019-03-09T23:37:40.377Z,100331.53
2019-03-09T23:40:09.835Z,100323.57
2019-03-09T23:42:39.292Z,100318.11
2019-03-09T23:45:09.961Z,100306.45
2019-03-09T23:47:39.383Z,100311.67
2019-03-09T23:50:09.984Z,100314.30
2019-03-09T23:52:39.406Z,100304.06
2019-03-09T23:55:08.801Z,100304.02
2019-03-09T23:57:38.213Z,100310.05
